Time;durP1;ratioP1;P1;durP2;ratioP2;P2;SDS_P1;SDS_P2;PMS_P1;PMS_P2;Temp;Humidity;BMP_temperature;BMP_pressure;BME280_temperature;BME280_humidity;BME280_pressure;Samples;Min_cycle;Max_cycle;Signal;HPM_P1;HPM_P2
2021/01/28 00:01:28;;;;;;;;;;;;;;;-4.25;91.97;92500.13;5071815;28;20056;-82
2021/01/28 00:03:54;;;;;;;2.47;1.05;;;;;;;-4.35;92.07;92500.94;5071620;28;19920;-82
2021/01/28 00:06:20;;;;;;;;;;;;;;;-4.31;91.64;92508.97;5071952;28;20052;-82
2021/01/28 00:08:46;;;;;;;5.38;2.90;;;;;;;-4.40;92.04;92504.81;5071328;28;19924;-82
2021/01/28 00:11:12;;;;;;;;;;;;;;;-4.41;92.31;92510.75;5071060;28;20072;-82
2021/01/28 00:13:40;;;;;;;6.15;3.25;;;;;;;-4.46;92.97;92506.13;5071193;28;19920;-82
2021/01/28 00:16:06;;;;;;;11.95;6.35;;;;;;;-4.53;93.96;92485.03;5071087;28;20052;-82
2021/01/28 00:18:33;;;;;;;17.95;7.72;;;;;;;-4.40;93.45;92513.09;5071038;28;20086;-82
2021/01/28 00:20:59;;;;;;;;;;;;;;;-4.32;95.18;92515.72;5071121;28;20045;-82
2021/01/28 00:23:25;;;;;;;22.13;6.80;;;;;;;-4.29;95.28;92517.94;5066111;28;20433;-82
2021/01/28 00:25:51;;;;;;;;;;;;;;;-4.25;95.16;92522.69;5070854;28;20439;-82
2021/01/28 00:28:20;;;;;;;13.75;6.00;;;;;;;-4.36;95.04;92513.66;5070690;28;19927;-82
2021/01/28 00:30:50;;;;;;;11.27;5.40;;;;;;;-4.25;94.29;92515.97;5070937;28;20606;-82
2021/01/28 00:33:20;;;;;;;13.82;5.90;;;;;;;-4.18;93.64;92516.19;5071172;28;20110;-82
2021/01/28 00:35:48;;;;;;;5.55;3.70;;;;;;;-4.13;93.30;92515.81;5071167;28;20446;-82
2021/01/28 00:38:17;;;;;;;7.10;5.05;;;;;;;-4.10;93.17;92518.81;5071061;28;20048;-82
2021/01/28 00:40:43;;;;;;;11.10;6.32;;;;;;;-4.80;92.84;92414.69;5070797;28;20068;-82
2021/01/28 00:43:09;;;;;;;11.88;4.90;;;;;;;-4.05;92.58;92516.69;5070640;28;20562;-82
2021/01/28 00:45:36;;;;;;;4.93;3.60;;;;;;;-4.03;92.78;92519.06;5070976;28;20044;-82
2021/01/28 00:48:03;;;;;;;;;;;;;;;-4.03;93.40;92509.03;5071051;28;20060;-81
2021/01/28 00:50:32;;;;;;;8.60;4.45;;;;;;;-4.04;92.25;92507.44;5070719;28;19921;-82
2021/01/28 00:52:58;;;;;;;5.55;3.65;;;;;;;-4.19;92.20;92512.13;5070688;28;20048;-82
2021/01/28 00:55:25;;;;;;;3.95;3.13;;;;;;;-4.26;91.98;92514.38;5070888;28;20510;-82
2021/01/28 00:57:51;;;;;;;;;;;;;;;-4.11;92.23;92507.22;5071432;28;20056;-84
2021/01/28 01:00:21;;;;;;;4.13;3.38;;;;;;;-4.19;92.55;92507.09;5070155;28;19928;-84
2021/01/28 01:02:47;;;;;;;6.93;3.83;;;;;;;-4.19;92.75;92502.88;5070473;28;20068;-84
2021/01/28 01:05:15;;;;;;;;;;;;;;;-4.05;94.36;92503.34;5071614;28;20048;-84
2021/01/28 01:07:42;;;;;;;2.10;1.88;;;;;;;-4.10;94.45;92511.31;5070572;28;20316;-84
2021/01/28 01:10:11;;;;;;;6.32;3.05;;;;;;;-3.95;93.78;92506.63;5070416;28;20553;-83
2021/01/28 01:12:37;;;;;;;6.68;3.47;;;;;;;-3.88;92.99;92506.84;5070451;28;20052;-84
2021/01/28 01:15:05;;;;;;;;;;;;;;;-3.95;93.39;92511.63;5071228;28;20059;-83
2021/01/28 01:17:31;;;;;;;5.85;1.73;;;;;;;-3.88;93.67;92506.84;5070617;28;19920;-84
2021/01/28 01:19:57;;;;;;;2.75;2.42;;;;;;;-3.74;95.54;92497.28;5070536;28;20053;-84
2021/01/28 01:22:24;;;;;;;;;;;;;;;-3.90;92.28;92494.44;5070916;28;20071;-83
2021/01/28 01:24:50;;;;;;;6.95;2.80;;;;;;;-4.21;94.47;92468.84;5070344;28;20331;-83
2021/01/28 01:27:16;;;;;;;3.53;3.15;;;;;;;-4.09;93.70;92499.53;5070857;28;20059;-84
2021/01/28 01:29:42;;;;;;;5.78;3.97;;;;;;;-4.06;94.30;92494.25;5070377;28;20497;-84
2021/01/28 01:32:09;;;;;;;5.10;2.95;;;;;;;-4.03;94.66;92497.28;5070499;28;20045;-84
2021/01/28 01:34:35;;;;;;;;;;;;;;;-3.95;95.14;92498.28;5070825;28;20056;-83
2021/01/28 01:37:01;;;;;;;3.60;2.70;;;;;;;-4.45;93.98;92490.16;5070063;28;19920;-85
2021/01/28 01:39:28;;;;;;;;;;;;;;;-4.17;95.07;92496.00;5070920;28;20052;-84
2021/01/28 01:41:54;;;;;;;5.47;2.10;;;;;;;-4.20;95.23;92493.78;5070536;28;19921;-83
2021/01/28 01:44:20;;;;;;;;;;;;;;;-4.21;94.83;92499.72;5070737;28;20485;-84
2021/01/28 01:46:52;;;;;;;7.05;4.07;;;;;;;-4.41;95.34;92503.22;5070281;28;19943;-84
2021/01/28 01:49:24;;;;;;;8.65;6.07;;;;;;;-4.38;95.54;92498.72;5070045;28;20049;-84
2021/01/28 01:51:50;;;;;;;10.93;4.00;;;;;;;-4.30;96.25;92503.06;5070304;28;20056;-84
2021/01/28 01:54:29;;;;;;;10.23;6.05;;;;;;;-4.14;99.57;92496.66;5070396;28;20485;-83
2021/01/28 01:56:59;;;;;;;10.98;4.00;;;;;;;-3.97;100.00;92502.66;5070445;28;20057;-84
2021/01/28 01:59:30;;;;;;;13.18;5.28;;;;;;;-3.91;100.00;92499.59;5070142;28;20443;-83
2021/01/28 02:02:01;;;;;;;7.07;3.20;;;;;;;-3.79;100.00;92508.50;5070149;28;20063;-84
2021/01/28 02:04:29;;;;;;;3.75;3.33;;;;;;;-3.72;99.98;92515.47;5070115;28;20714;-83
2021/01/28 02:07:03;;;;;;;4.60;3.05;;;;;;;-3.66;99.80;92515.72;5070020;28;20094;-83
2021/01/28 02:09:29;;;;;;;7.05;4.13;;;;;;;-3.64;99.19;92513.06;5069993;28;20484;-84
2021/01/28 02:11:56;;;;;;;8.82;4.45;;;;;;;-3.65;97.38;92524.81;5070116;28;20049;-84
2021/01/28 02:14:23;;;;;;;9.95;6.15;;;;;;;-3.73;97.00;92507.19;5071967;28;20045;-83
2021/01/28 02:16:53;;;;;;;4.75;2.88;;;;;;;-3.69;96.77;92520.22;5073424;28;20053;-83
2021/01/28 02:19:33;;;;;;;5.85;3.53;;;;;;;-3.72;96.94;92516.28;5073602;28;20059;-84
2021/01/28 02:22:00;;;;;;;9.82;3.50;;;;;;;-3.76;96.31;92517.47;5073162;28;20044;-83
2021/01/28 02:24:35;;;;;;;7.75;4.28;;;;;;;-3.67;97.37;92519.16;5073424;28;20045;-84
2021/01/28 02:27:08;;;;;;;5.97;5.37;;;;;;;-3.69;98.23;92512.69;5073835;28;20098;-84
2021/01/28 02:29:34;;;;;;;7.80;4.35;;;;;;;-3.67;97.80;92515.84;5073552;28;20367;-83
2021/01/28 02:32:01;;;;;;;23.90;8.90;;;;;;;-3.57;99.12;92520.84;5073642;28;20053;-83
2021/01/28 02:34:27;;;;;;;9.80;4.80;;;;;;;-3.60;97.41;92516.88;5073502;28;20075;-83
2021/01/28 02:36:55;;;;;;;4.88;3.63;;;;;;;-3.71;94.70;92519.59;5073210;28;20051;-84
2021/01/28 02:39:25;;;;;;;11.52;4.93;;;;;;;-3.71;98.07;92517.84;5072998;28;20094;-84
2021/01/28 02:41:59;;;;;;;9.52;4.75;;;;;;;-3.69;98.35;92521.03;5072948;28;20053;-84
2021/01/28 02:44:27;;;;;;;5.90;2.45;;;;;;;-3.69;97.23;92523.53;5073322;28;20503;-84
2021/01/28 02:46:53;;;;;;;14.20;5.75;;;;;;;-3.68;98.00;92515.06;5073296;28;20059;-84
2021/01/28 02:49:19;;;;;;;;;;;;;;;-3.62;98.67;92521.25;5073596;28;20056;-84
2021/01/28 02:51:46;;;;;;;16.35;5.40;;;;;;;-3.69;98.30;92518.53;5073195;28;19928;-84
2021/01/28 02:54:12;;;;;;;;;;;;;;;-3.69;96.22;92532.78;5073295;28;20048;-83
2021/01/28 02:56:39;;;;;;;8.52;5.68;;;;;;;-4.02;95.36;92523.16;5072867;28;19931;-84
2021/01/28 02:59:06;;;;;;;8.25;5.30;;;;;;;-3.90;95.73;92531.28;5072610;28;20053;-83
2021/01/28 03:01:34;;;;;;;8.52;5.63;;;;;;;-3.91;96.20;92529.72;5072947;28;20127;-84
2021/01/28 03:04:01;;;;;;;19.45;9.10;;;;;;;-4.05;96.37;92506.66;5072998;28;20056;-84
2021/01/28 03:06:27;;;;;;;26.95;10.88;;;;;;;-3.90;94.75;92526.25;5072723;28;20049;-84
2021/01/28 03:08:53;;;;;;;19.35;6.88;;;;;;;-3.89;95.42;92525.34;5072550;28;20052;-83
2021/01/28 03:11:20;;;;;;;26.20;8.73;;;;;;;-3.88;96.17;92519.41;5072870;28;20155;-84
2021/01/28 03:13:47;;;;;;;14.80;5.10;;;;;;;-3.81;97.52;92514.59;5072757;28;20398;-84
2021/01/28 03:16:13;;;;;;;;;;;;;;;-3.75;97.52;92514.06;5073023;28;20098;-84
2021/01/28 03:18:40;;;;;;;16.02;7.82;;;;;;;-3.76;98.25;92513.25;5072278;28;20319;-84
2021/01/28 03:21:06;;;;;;;23.10;8.23;;;;;;;-3.71;99.76;92512.06;5072361;28;20063;-84
2021/01/28 03:23:32;;;;;;;7.03;4.68;;;;;;;-3.68;99.43;92505.03;5072221;28;20052;-84
2021/01/28 03:25:58;;;;;;;;;;;;;;;-3.69;98.31;92511.00;5072826;28;20067;-84
2021/01/28 03:28:24;;;;;;;9.07;2.70;;;;;;;-3.72;99.85;92500.41;5072214;28;20361;-83
2021/01/28 03:30:51;;;;;;;5.75;3.47;;;;;;;-3.74;99.33;92495.56;5072283;28;20076;-84
2021/01/28 03:33:20;;;;;;;14.80;5.00;;;;;;;-3.69;98.81;92498.44;5072065;28;20421;-83
2021/01/28 03:35:47;;;;;;;7.00;2.63;;;;;;;-3.72;98.59;92495.41;5071966;28;20041;-83
2021/01/28 03:38:14;;;;;;;6.03;3.55;;;;;;;-3.85;97.28;92490.72;5071812;28;20048;-83
2021/01/28 03:40:40;;;;;;;;;;;;;;;-3.93;97.64;92488.91;5072477;28;21398;-83
2021/01/28 03:43:06;;;;;;;2.58;2.00;;;;;;;-4.02;98.39;92498.06;5071956;28;19924;-83
2021/01/28 03:45:33;;;;;;;10.35;5.47;;;;;;;-4.09;97.50;92497.03;5071924;28;20041;-84
2021/01/28 03:47:59;;;;;;;;;;;;;;;-4.12;97.82;92490.56;5072460;28;20456;-83
2021/01/28 03:50:27;;;;;;;10.55;3.20;;;;;;;-4.10;99.98;92496.25;5071463;28;20026;-84
2021/01/28 03:52:54;;;;;;;10.98;3.28;;;;;;;-4.08;99.97;92489.38;5072037;28;20431;-84
2021/01/28 03:55:21;;;;;;;5.60;3.97;;;;;;;-4.10;100.00;92478.69;5071832;28;20056;-83
2021/01/28 03:57:48;;;;;;;9.23;5.45;;;;;;;-4.01;100.00;92489.63;5071707;28;20500;-83
2021/01/28 04:00:17;;;;;;;10.82;3.88;;;;;;;-4.02;100.00;92490.56;5071595;28;20053;-83
2021/01/28 04:02:44;;;;;;;9.90;4.20;;;;;;;-4.03;100.00;92492.25;5069017;28;20412;-83
2021/01/28 04:05:11;;;;;;;9.77;4.63;;;;;;;-3.96;100.00;92496.72;5065524;28;20040;-84
2021/01/28 04:07:38;;;;;;;16.27;6.57;;;;;;;-3.96;100.00;92490.00;5070723;28;20047;-83
2021/01/28 04:10:06;;;;;;;;;;;;;;;-3.92;100.00;92491.28;5071891;28;20412;-84
2021/01/28 04:12:32;;;;;;;8.55;5.47;;;;;;;-3.97;99.66;92495.94;5071245;28;19924;-83
2021/01/28 04:14:58;;;;;;;;;;;;;;;-3.98;100.00;92491.06;5071865;28;20060;-83
2021/01/28 04:17:24;;;;;;;5.15;3.63;;;;;;;-4.00;100.00;92501.22;5071303;28;19920;-84
2021/01/28 04:19:50;;;;;;;;;;;;;;;-3.98;100.00;92501.88;5071615;28;20056;-83
2021/01/28 04:22:17;;;;;;;5.72;4.15;;;;;;;-4.00;100.00;92501.22;5071137;28;19932;-83
2021/01/28 04:24:43;;;;;;;;;;;;;;;-4.02;100.00;92501.34;5071850;28;20441;-84
2021/01/28 04:27:10;;;;;;;13.25;5.30;;;;;;;-4.05;99.89;92509.19;5071256;28;19920;-83
2021/01/28 04:29:36;;;;;;;6.15;3.50;;;;;;;-4.05;100.00;92508.38;5064810;28;20044;-83
2021/01/28 04:32:02;;;;;;;;;;;;;;;-4.03;100.00;92509.03;5071234;28;20497;-84
2021/01/28 04:34:28;;;;;;;11.38;5.13;;;;;;;-4.10;99.95;92511.31;5070878;28;19971;-83
2021/01/28 04:36:55;;;;;;;7.50;4.85;;;;;;;-4.08;99.91;92511.16;5070292;28;20052;-83
2021/01/28 04:39:21;;;;;;;;;;;;;;;-4.06;99.99;92517.63;5071352;28;20052;-83
2021/01/28 04:41:47;;;;;;;4.00;2.53;;;;;;;-4.13;99.61;92511.56;5067990;28;19925;-83
2021/01/28 04:44:14;;;;;;;8.82;5.05;;;;;;;-4.10;100.00;92516.31;5070817;28;20067;-84
2021/01/28 04:46:44;;;;;;;9.82;5.80;;;;;;;-4.08;100.00;92524.50;5070743;28;20048;-83
2021/01/28 04:49:14;;;;;;;10.43;5.70;;;;;;;-4.03;100.00;92527.38;5069242;28;20059;-83
2021/01/28 04:51:42;;;;;;;9.25;6.10;;;;;;;-3.96;99.98;92531.84;5065671;28;20060;-83
2021/01/28 04:54:20;;;;;;;9.73;5.70;;;;;;;-3.96;99.67;92536.84;5068249;28;20052;-83
2021/01/28 04:56:47;;;;;;;6.13;3.95;;;;;;;-3.94;99.13;92524.97;5070686;28;20048;-84
2021/01/28 04:59:19;;;;;;;3.67;2.97;;;;;;;-3.95;98.99;92533.41;5070407;28;20048;-83
2021/01/28 05:01:45;;;;;;;6.18;4.20;;;;;;;-3.96;99.44;92541.88;5068064;28;20059;-83
2021/01/28 05:04:14;;;;;;;;;;;;;;;-3.97;99.03;92543.59;5070638;28;20041;-82
2021/01/28 05:06:40;;;;;;;5.53;2.22;;;;;;;-4.01;100.00;92539.78;5070716;28;20361;-83
2021/01/28 05:09:07;;;;;;;7.80;3.30;;;;;;;-4.02;99.72;92544.00;5070832;28;20041;-84
2021/01/28 05:11:36;;;;;;;7.00;2.90;;;;;;;-3.94;98.56;92555.09;5070723;28;20045;-83
2021/01/28 05:14:17;;;;;;;5.20;3.63;;;;;;;-3.97;97.30;92553.66;5070544;28;20052;-83
2021/01/28 05:16:46;;;;;;;8.73;5.25;;;;;;;-3.94;98.57;92560.88;5070657;28;20496;-83
2021/01/28 05:19:30;;;;;;;5.63;4.47;;;;;;;-3.93;99.23;92561.69;5068766;28;20551;-83
2021/01/28 05:22:05;;;;;;;8.20;4.72;;;;;;;-4.06;99.50;92555.25;5070314;28;20048;-83
2021/01/28 05:24:37;;;;;;;7.40;3.78;;;;;;;-4.04;98.61;92565.94;5070887;28;20059;-83
2021/01/28 05:27:13;;;;;;;9.82;4.72;;;;;;;-4.08;99.61;92568.88;5065132;28;20493;-83
2021/01/28 05:29:42;;;;;;;5.03;4.50;;;;;;;-4.11;99.81;92567.41;5065421;28;20056;-83
2021/01/28 05:32:15;;;;;;;8.07;5.30;;;;;;;-4.10;99.59;92576.53;5070476;28;20052;-83
2021/01/28 05:34:41;;;;;;;6.03;4.50;;;;;;;-4.14;98.84;92577.72;5070401;28;20045;-83
2021/01/28 05:37:09;;;;;;;;;;;;;;;-4.18;98.53;92577.19;5071201;28;20060;-82
2021/01/28 05:39:38;;;;;;;3.22;2.47;;;;;;;-4.29;98.81;92572.34;5070627;28;20376;-83
2021/01/28 05:42:11;;;;;;;21.75;7.70;;;;;;;-4.25;98.46;92573.66;5070786;28;20417;-84
2021/01/28 05:44:38;;;;;;;12.93;7.35;;;;;;;-4.32;97.86;92577.63;5068150;28;20045;-83
2021/01/28 05:47:09;;;;;;;12.20;5.38;;;;;;;-4.40;98.47;92580.78;5070432;28;20563;-83
2021/01/28 05:49:38;;;;;;;12.98;6.97;;;;;;;-4.40;99.79;92583.31;5060053;28;20496;-83
2021/01/28 05:52:19;;;;;;;9.60;6.07;;;;;;;-4.36;99.43;92593.88;5061191;28;20044;-83
2021/01/28 05:55:02;;;;;;;12.00;8.50;;;;;;;-4.37;97.80;92598.09;5062516;28;20408;-83
2021/01/28 05:57:33;;;;;;;13.07;6.85;;;;;;;-4.38;99.96;92599.00;5069510;28;20044;-83
2021/01/28 06:00:07;;;;;;;9.05;6.38;;;;;;;-4.37;99.30;92607.31;5074245;28;20052;-83
2021/01/28 06:03:12;;;;;;;6.50;4.50;;;;;;;-4.37;99.79;92608.13;5073675;28;20408;-83
2021/01/28 06:05:51;;;;;;;3.53;2.90;;;;;;;-4.35;99.78;92606.25;5046720;28;20045;-83
2021/01/28 06:09:02;;;;;;;4.95;3.75;;;;;;;-4.28;99.30;92614.03;5072686;28;20688;-83
2021/01/28 06:11:42;;;;;;;10.23;6.53;;;;;;;-4.21;99.59;92612.56;5011468;28;20042;-83
2021/01/28 06:14:50;;;;;;;21.48;6.97;;;;;;;-4.28;99.21;92609.03;5003967;28;20058;-83
2021/01/28 06:17:35;;;;;;;9.52;5.07;;;;;;;-4.22;99.62;92620.25;5053978;28;20067;-83
2021/01/28 06:20:20;;;;;;;11.50;5.97;;;;;;;-4.19;100.00;92620.78;5058928;28;20147;-83
2021/01/28 06:22:53;;;;;;;;;;;;;;;-4.12;99.74;92620.22;5062832;28;20914;-83
2021/01/28 06:25:49;;;;;;;14.02;7.75;;;;;;;-4.04;99.89;92621.13;5064045;28;19920;-83
2021/01/28 06:28:29;;;;;;;18.13;9.38;;;;;;;-4.01;99.38;92625.09;5057086;28;20061;-83
2021/01/28 06:31:11;;;;;;;23.15;12.30;;;;;;;-4.07;98.34;92606.34;5061090;28;20052;-83
2021/01/28 06:33:55;;;;;;;15.85;10.38;;;;;;;-3.93;99.05;92607.63;5059305;28;20049;-84
2021/01/28 06:36:32;;;;;;;23.08;13.10;;;;;;;-3.85;99.19;92614.47;5059972;28;20056;-83
2021/01/28 06:39:15;;;;;;;13.57;9.07;;;;;;;-3.84;98.02;92602.72;5063809;28;20064;-83
2021/01/28 06:41:51;;;;;;;19.27;9.30;;;;;;;-4.13;96.62;92616.13;5058340;28;20056;-83
2021/01/28 06:44:22;;;;;;;17.50;11.27;;;;;;;-4.02;96.31;92615.97;5057789;28;20061;-83
2021/01/28 06:46:54;;;;;;;24.15;11.13;;;;;;;-3.97;97.56;92613.84;5059331;28;20103;-83
2021/01/28 06:49:35;;;;;;;21.50;14.30;;;;;;;-3.98;98.77;92611.47;5059291;28;20139;-84
2021/01/28 06:52:22;;;;;;;22.92;14.90;;;;;;;-3.89;97.94;92616.47;5066621;28;20068;-83
2021/01/28 06:54:55;;;;;;;24.83;19.25;;;;;;;-3.81;98.07;92622.50;5073001;28;20044;-83
2021/01/28 06:57:29;;;;;;;35.65;20.65;;;;;;;-3.71;97.18;92623.28;5072736;28;20052;-83
2021/01/28 07:00:04;;;;;;;34.17;18.00;;;;;;;-3.57;97.75;92621.25;5071999;28;20059;-83
2021/01/28 07:02:44;;;;;;;25.27;14.55;;;;;;;-3.40;95.45;92624.72;5073051;28;20049;-83
2021/01/28 07:05:20;;;;;;;28.88;14.35;;;;;;;-3.45;93.05;92630.19;5060361;28;20052;-83
2021/01/28 07:07:49;;;;;;;;;;;;;;;-3.56;92.80;92641.19;5071693;28;20041;-83
2021/01/28 07:10:23;;;;;;;22.27;16.20;;;;;;;-3.64;93.50;92636.06;5062484;28;19925;-83
2021/01/28 07:12:54;;;;;;;19.75;11.77;;;;;;;-3.70;94.29;92636.63;5061155;28;20083;-83
2021/01/28 07:15:21;;;;;;;20.77;12.82;;;;;;;-3.73;95.32;92641.91;5055306;28;20539;-83
2021/01/28 07:17:53;;;;;;;22.35;13.23;;;;;;;-3.68;94.28;92642.28;5056770;28;20279;-83
2021/01/28 07:20:31;;;;;;;26.30;12.55;;;;;;;-3.67;94.70;92643.88;5056242;28;20060;-83
2021/01/28 07:23:23;;;;;;;29.85;15.48;;;;;;;-3.56;95.76;92647.94;5058969;28;20087;-83
2021/01/28 07:25:51;;;;;;;32.30;16.42;;;;;;;-3.51;94.42;92648.31;5058042;28;20049;-83
2021/01/28 07:28:28;;;;;;;16.88;10.63;;;;;;;-3.53;92.74;92645.13;5057733;28;20135;-83
2021/01/28 07:31:21;;;;;;;17.48;10.02;;;;;;;-3.25;92.48;92645.94;5069568;28;20041;-83
2021/01/28 07:33:49;;;;;;;18.58;8.82;;;;;;;-2.73;90.52;92656.38;5071972;28;20048;-84
2021/01/28 07:36:36;;;;;;;21.00;11.48;;;;;;;-2.53;88.96;92656.22;5072070;28;20048;-84
2021/01/28 07:39:05;;;;;;;22.88;9.93;;;;;;;-2.11;89.57;92655.66;5071579;28;20135;-84
2021/01/28 07:41:41;;;;;;;16.33;10.18;;;;;;;-1.48;88.05;92651.28;5071864;28;20056;-84
2021/01/28 07:44:35;;;;;;;18.13;6.10;;;;;;;-1.30;83.79;92657.22;5072089;28;20045;-85
2021/01/28 07:47:03;;;;;;;13.23;7.50;;;;;;;-1.26;85.25;92651.72;5072027;28;20098;-84
2021/01/28 07:49:31;;;;;;;16.02;8.40;;;;;;;-1.34;86.73;92656.72;5071730;28;20538;-85
2021/01/28 07:52:39;;;;;;;194.13;55.17;;;;;;;-1.19;86.07;92653.63;5072038;28;20401;-85
2021/01/28 07:55:39;;;;;;;62.65;21.42;;;;;;;-1.18;85.22;92655.19;5035679;28;20094;-85
2021/01/28 07:58:18;;;;;;;30.27;14.32;;;;;;;-1.21;86.23;92649.53;5067249;28;20048;-84
2021/01/28 08:00:45;;;;;;;18.40;7.25;;;;;;;-0.95;86.71;92652.91;5064951;28;20059;-85
2021/01/28 08:03:20;;;;;;;29.65;8.85;;;;;;;-0.64;83.85;92649.84;5064923;28;20122;-84
2021/01/28 08:05:51;;;;;;;12.95;5.85;;;;;;;-0.38;80.43;92666.59;5061314;28;20048;-86
2021/01/28 08:08:20;;;;;;;6.22;2.97;;;;;;;-0.40;79.15;92655.88;5067326;28;20050;-85
2021/01/28 08:10:48;;;;;;;11.35;6.15;;;;;;;-0.60;83.40;92658.66;5068363;28;20496;-85
2021/01/28 08:13:23;;;;;;;8.98;5.45;;;;;;;-0.13;82.12;92666.63;5066387;28;20056;-86
2021/01/28 08:15:55;;;;;;;20.43;6.77;;;;;;;0.11;81.36;92665.03;5070369;28;20049;-86
2021/01/28 08:18:25;;;;;;;50.53;13.45;;;;;;;0.24;80.39;92674.66;5064950;28;20509;-85
2021/01/28 08:21:04;;;;;;;31.58;11.00;;;;;;;0.47;78.47;92664.63;5067397;28;20428;-86
2021/01/28 08:23:31;;;;;;;24.48;8.63;;;;;;;0.37;79.42;92677.47;5070781;28;20508;-86
2021/01/28 08:25:59;;;;;;;154.63;41.55;;;;;;;0.07;79.54;92648.59;5071300;28;20048;-86
2021/01/28 08:28:27;;;;;;;116.68;31.50;;;;;;;0.27;79.76;92666.72;5071170;28;20389;-85
2021/01/28 08:31:00;;;;;;;19.48;7.97;;;;;;;0.47;79.14;92679.03;5071020;28;20049;-86
2021/01/28 08:33:27;;;;;;;12.77;5.68;;;;;;;0.37;79.18;92687.56;5070829;28;20048;-86
2021/01/28 08:35:55;;;;;;;13.05;6.68;;;;;;;0.43;79.72;92668.47;5070800;28;20393;-86
2021/01/28 08:38:25;;;;;;;9.48;4.03;;;;;;;0.49;78.74;92694.81;5070896;28;20055;-86
2021/01/28 08:41:05;;;;;;;18.90;5.80;;;;;;;0.48;78.33;92695.75;5071024;28;20201;-86
2021/01/28 08:43:32;;;;;;;11.18;4.70;;;;;;;0.38;78.40;92690.88;5071081;28;20049;-86
2021/01/28 08:46:11;;;;;;;7.22;3.65;;;;;;;0.65;76.88;92691.47;5070821;28;20048;-86
2021/01/28 08:48:38;;;;;;;5.93;2.42;;;;;;;0.77;75.25;92691.91;5070739;28;20048;-85
2021/01/28 08:51:08;;;;;;;3.28;2.20;;;;;;;0.80;74.40;92699.19;5070798;28;20060;-85
2021/01/28 08:53:36;;;;;;;4.30;2.67;;;;;;;1.09;75.30;92697.00;5070908;28;20147;-85
2021/01/28 08:56:08;;;;;;;3.30;2.30;;;;;;;1.12;74.83;92687.38;5070711;28;20491;-86
2021/01/28 08:58:41;;;;;;;3.67;2.40;;;;;;;1.49;74.68;92686.88;5070676;28;20060;-86
2021/01/28 09:01:08;;;;;;;6.25;2.13;;;;;;;1.71;71.87;92696.22;5069959;28;20056;-84
2021/01/28 09:03:39;;;;;;;3.67;2.47;;;;;;;1.18;72.26;92683.38;5067838;28;20480;-85
2021/01/28 09:06:06;;;;;;;3.47;2.20;;;;;;;1.33;73.13;92693.59;5070531;28;20409;-86
2021/01/28 09:08:35;;;;;;;3.38;1.85;;;;;;;1.43;71.27;92689.13;5059443;28;20056;-84
2021/01/28 09:11:16;;;;;;;5.05;2.42;;;;;;;1.41;70.73;92685.97;5070097;28;20469;-86
2021/01/28 09:14:02;;;;;;;6.57;2.78;;;;;;;1.23;72.40;92681.16;5070721;28;20049;-87
2021/01/28 09:16:29;;;;;;;4.30;2.35;;;;;;;1.00;72.50;92681.88;5070786;28;20412;-86
2021/01/28 09:18:55;;;;;;;;;;;;;;;1.06;71.81;92685.47;5071329;28;20052;-86
2021/01/28 09:21:24;;;;;;;2.95;1.77;;;;;;;0.88;71.86;92683.97;5070289;28;19920;-86
2021/01/28 09:23:59;;;;;;;3.95;1.92;;;;;;;0.55;72.22;92683.28;5073948;28;20048;-85
2021/01/28 09:26:30;;;;;;;2.45;1.67;;;;;;;0.73;74.67;92678.00;5074454;28;20053;-87
2021/01/28 09:29:08;;;;;;;2.28;1.75;;;;;;;0.22;72.02;92689.16;5074674;28;20080;-87
2021/01/28 09:31:34;;;;;;;1.63;1.40;;;;;;;0.01;73.44;92690.44;5074491;28;20142;-86
2021/01/28 09:34:11;;;;;;;;;;;;;;;-0.36;75.65;92696.72;5074733;28;20048;-87
2021/01/28 09:36:37;;;;;;;4.05;1.80;;;;;;;-0.62;77.42;92695.09;5071985;28;19966;-85
2021/01/28 09:39:08;;;;;;;2.63;1.77;;;;;;;-1.00;77.34;92688.69;5074215;28;20181;-86
2021/01/28 09:41:40;;;;;;;1.48;1.15;;;;;;;-0.62;77.32;92692.56;5074486;28;20044;-87
2021/01/28 09:44:29;;;;;;;1.83;1.70;;;;;;;-0.61;78.77;92696.69;5074265;28;20045;-87
2021/01/28 09:47:04;;;;;;;2.30;1.45;;;;;;;-0.76;75.54;92688.91;5072238;28;20090;-86
2021/01/28 09:49:30;;;;;;;4.20;3.88;;;;;;;-0.72;76.94;92688.47;5066693;28;20060;-85
2021/01/28 09:51:57;;;;;;;7.13;3.67;;;;;;;-0.83;80.40;92679.44;5074146;28;20056;-86
2021/01/28 09:54:25;;;;;;;1.05;0.85;;;;;;;-1.33;78.43;92655.78;5074069;28;20049;-83
2021/01/28 09:56:52;;;;;;;1.60;1.40;;;;;;;-1.18;80.65;92683.72;5074023;28;20121;-85
2021/01/28 09:59:18;;;;;;;1.65;1.17;;;;;;;-1.49;80.60;92686.69;5073692;28;20059;-85
2021/01/28 10:01:45;;;;;;;;;;;;;;;-1.49;81.66;92682.47;5074301;28;20057;-85
2021/01/28 10:04:12;;;;;;;1.52;1.17;;;;;;;-0.87;79.61;92672.34;5073429;28;19963;-86
2021/01/28 10:06:39;;;;;;;5.47;1.95;;;;;;;-1.19;76.99;92678.81;5073874;28;20075;-84
2021/01/28 10:09:06;;;;;;;3.38;2.03;;;;;;;-1.20;77.87;92675.53;5071275;28;20058;-85
2021/01/28 10:11:32;;;;;;;6.63;3.13;;;;;;;-0.54;78.54;92680.75;5073511;28;20412;-86
2021/01/28 10:14:00;;;;;;;3.13;1.90;;;;;;;-0.07;78.81;92675.28;5074027;28;20048;-86
2021/01/28 10:16:26;;;;;;;4.32;2.22;;;;;;;0.51;76.67;92670.19;5073535;28;20052;-85
2021/01/28 10:18:53;;;;;;;3.15;1.90;;;;;;;0.39;73.36;92673.06;5073534;28;20094;-86
2021/01/28 10:21:19;;;;;;;;;;;;;;;0.79;74.65;92675.63;5074014;28;20094;-86
2021/01/28 10:23:45;;;;;;;6.70;2.53;;;;;;;1.19;72.40;92675.63;5073450;28;19921;-85
2021/01/28 10:26:11;;;;;;;3.45;1.95;;;;;;;1.06;71.68;92681.22;5073405;28;20056;-84
2021/01/28 10:28:37;;;;;;;2.60;1.30;;;;;;;0.95;71.60;92674.00;5073351;28;20075;-83
2021/01/28 10:31:06;;;;;;;3.47;2.55;;;;;;;0.61;70.96;92680.09;5073305;28;20048;-84
2021/01/28 10:33:36;;;;;;;2.33;1.88;;;;;;;-0.14;71.12;92680.16;5072126;28;20048;-85
2021/01/28 10:36:02;;;;;;;2.05;1.08;;;;;;;0.04;74.39;92687.59;5073312;28;21106;-83
2021/01/28 10:38:29;;;;;;;4.03;1.40;;;;;;;0.10;72.65;92681.91;5073256;28;20044;-85
2021/01/28 10:40:55;;;;;;;;;;;;;;;0.19;74.97;92675.09;5073349;28;20569;-83
2021/01/28 10:43:22;;;;;;;4.82;2.15;;;;;;;0.52;73.32;92679.34;5072996;28;20391;-84
2021/01/28 10:45:49;;;;;;;6.47;3.45;;;;;;;0.79;72.34;92678.16;5073158;28;20189;-84
2021/01/28 10:48:17;;;;;;;2.47;0.85;;;;;;;0.74;70.50;92685.44;5072934;28;20448;-86
2021/01/28 10:50:44;;;;;;;3.38;2.15;;;;;;;0.86;71.26;92688.41;5073036;28;20056;-84
2021/01/28 10:53:10;;;;;;;1.63;1.10;;;;;;;0.76;71.64;92682.75;5072870;28;20040;-84
2021/01/28 10:55:36;;;;;;;;;;;;;;;0.63;72.45;92684.06;5073364;28;20075;-84
2021/01/28 10:58:03;;;;;;;1.90;1.08;;;;;;;0.15;71.50;92694.06;5072788;28;20496;-84
2021/01/28 11:00:31;;;;;;;3.60;0.95;;;;;;;-0.34;73.18;92684.72;5072992;28;20048;-84
2021/01/28 11:02:58;;;;;;;4.38;1.90;;;;;;;-0.50;77.03;92688.81;5072387;28;20055;-84
2021/01/28 11:05:27;;;;;;;3.50;2.70;;;;;;;-0.32;75.93;92685.38;5072678;28;20056;-84
2021/01/28 11:07:54;;;;;;;4.32;2.45;;;;;;;-0.65;76.89;92687.84;5072603;28;20045;-84
2021/01/28 11:10:23;;;;;;;2.00;1.52;;;;;;;-0.71;76.66;92689.22;5072818;28;20420;-83
2021/01/28 11:12:49;;;;;;;2.80;1.60;;;;;;;-0.80;77.50;92673.28;5072789;28;20143;-84
2021/01/28 11:15:16;;;;;;;1.58;1.40;;;;;;;-0.72;76.68;92683.41;5072489;28;20507;-84
2021/01/28 11:17:43;;;;;;;2.40;1.63;;;;;;;-0.68;75.06;92678.84;5072419;28;20471;-84
2021/01/28 11:20:11;;;;;;;2.00;1.20;;;;;;;-0.23;76.69;92671.78;5068464;28;21502;-83
2021/01/28 11:22:38;;;;;;;3.10;1.75;;;;;;;-0.01;75.38;92672.91;5056723;28;20053;-83
2021/01/28 11:25:07;;;;;;;2.85;1.60;;;;;;;0.68;74.46;92675.19;5064280;28;20525;-84
2021/01/28 11:27:34;;;;;;;3.53;1.25;;;;;;;0.96;72.51;92678.09;5062325;28;20080;-85
2021/01/28 11:30:00;;;;;;;;;;;;;;;1.40;72.69;92674.28;5062596;28;20056;-83
2021/01/28 11:32:26;;;;;;;3.20;1.77;;;;;;;1.44;71.72;92662.06;5059930;28;19920;-84
2021/01/28 11:34:52;;;;;;;3.63;1.80;;;;;;;1.18;70.98;92668.22;5069382;28;20205;-84
2021/01/28 11:37:18;;;;;;;2.65;1.27;;;;;;;1.15;67.96;92654.16;5071620;28;20048;-85
2021/01/28 11:39:47;;;;;;;;;;;;;;;1.56;69.03;92672.59;5072436;28;20048;-83
2021/01/28 11:42:15;;;;;;;4.18;1.92;;;;;;;1.71;70.27;92668.38;5072342;28;20967;-84
2021/01/28 11:44:41;;;;;;;3.55;1.98;;;;;;;1.50;67.76;92663.13;5066383;28;20055;-84
2021/01/28 11:47:07;;;;;;;;;;;;;;;1.15;67.74;92671.09;5060139;28;20041;-85
2021/01/28 11:49:33;;;;;;;3.50;1.60;;;;;;;0.62;69.65;92669.84;5062133;28;20338;-85
2021/01/28 11:51:59;;;;;;;;;;;;;;;0.29;69.50;92669.91;5061180;28;20045;-84
2021/01/28 11:54:25;;;;;;;2.75;2.33;;;;;;;-0.06;68.65;92665.03;5060769;28;19927;-84